This is the latest recevied weather packets stored in our database for station/object KN6ZYR. If no packets are shown the sender has not sent any weather packets the latest 10 day(s).
| Time | Temp. | Humidity | Pressure | Rain* | Wind** | Luminosity | Snow |
|---|---|---|---|---|---|---|---|
| 1777638321 | 7.22° C | 46% | 1021.5 hPa | 0 mm | - | 0 W/m² | - |
| 1777638017 | 7.22° C | 47% | 1021.6 hPa | 0 mm | - | 0 W/m² | - |
| 1777637714 | 7.22° C | 48% | 1021.5 hPa | 0 mm | - | 0 W/m² | - |
| 1777637411 | 7.22° C | 47% | 1021.6 hPa | 0 mm | - | 0 W/m² | - |
| 1777637108 | 7.22° C | 48% | 1021.6 hPa | 0 mm | - | 0 W/m² | - |
| 1777636804 | 8.33° C | 44% | 1021.5 hPa | 0 mm | - | 0 W/m² | - |
| 1777636500 | 8.89° C | 42% | 1021.7 hPa | 0 mm | - | 0 W/m² | - |
| 1777636196 | 9.44° C | 40% | 1021.7 hPa | 0 mm | - | 0 W/m² | - |
| 1777635890 | 9.44° C | 40% | 1021.5 hPa | 0 mm | - | 0 W/m² | - |
| 1777635587 | 8.89° C | 41% | 1021.6 hPa | 0 mm | - | 0 W/m² | - |
| 1777635284 | 7.22° C | 45% | 1021.7 hPa | 0 mm | - | 0 W/m² | - |
| 1777634981 | 7.78° C | 46% | 1021.6 hPa | 0 mm | - | 0 W/m² | - |
| 1777634677 | 7.78° C | 46% | 1021.6 hPa | 0 mm | - | 0 W/m² | - |
| 1777634375 | 7.22° C | 46% | 1021.6 hPa | 0 mm | - | 0 W/m² | - |
| 1777634072 | 7.22° C | 49% | 1021.4 hPa | 0 mm | - | 0 W/m² | - |
| 1777633768 | 7.78° C | 48% | 1021.5 hPa | 0 mm | - | 0 W/m² | - |
| 1777633466 | 8.33° C | 44% | 1021.5 hPa | 0 mm | - | 0 W/m² | - |
| 1777633164 | 8.89° C | 44% | 1021.4 hPa | 0 mm | - | 0 W/m² | - |
| 1777632860 | 8.89° C | 43% | 1021.4 hPa | 0 mm | - | 0 W/m² | - |
| 1777632555 | 8.89° C | 43% | 1021.4 hPa | 0 mm | - | 0 W/m² | - |
| 1777632248 | 9.44° C | 41% | 1021.7 hPa | 0 mm | - | 0 W/m² | - |
| 1777631945 | 10.56° C | 39% | 1021.4 hPa | 0 mm | - | 0 W/m² | - |
| 1777631644 | 11.67° C | 33% | 1021.5 hPa | 0 mm | - | 0 W/m² | - |
| 1777631340 | 11.67° C | 32% | 1021.2 hPa | 0 mm | - | 0 W/m² | - |
| 1777631036 | 12.22° C | 32% | 1021.3 hPa | 0 mm | - | 0 W/m² | - |
* Rain latest hour (hover to see other rain measurements)
** Current wind speed in m/s (hover to see current wind gust speed)